Terminal Aerodrome Forecast
Issued by NWS

Home | Current Version | Previous Version | Text Only | Print | Product List | Glossary On
Versions: 1 2 3 4 5 6 7 8 9 10 11 12 13 14 15 16 17 18 19 20 21
000
FTUS43 KDDC 232320
TAFHYS
TAF
KHYS 232320Z 2400/2424 18027G38KT P6SM BKN250
     FM240400 16022G31KT P6SM VCTS BKN080CB
     FM240700 16020G28KT P6SM BKN200 WS020/18045KT
     FM241200 16018KT P6SM BKN200
     FM241700 11011KT P6SM BKN200
      AMD NOT SKED=

USA.gov is the U.S. government's official web portal to all federal, state and local government web resources and services.